< < Back
Terminal Aerodrome Forecast


Current Version              Previous Versions:   1  2  3  4  5  6  7  8  9  

Terminal Aerodrome Forecast

769
FTUS42 KCAE 250939 AAA
TAFCAE
TAF AMD
KCAE 250939Z 2510/2606 00000KT P6SM SCT060
     FM251500 04006KT P6SM SCT050
     FM252200 08005KT P6SM SCT070 BKN250
     FM260000 VRB03KT P6SM SCT070=

Latest METAR

441
SAUS80 KWBC 250900
MTRCAE
METAR KCAE 250856Z 00000KT 10SM CLR 22/18 A3015 RMK AO2 SLP206 T02170183
56008


USA.gov is the U.S. government's official web portal to all federal, state and local government web resources and services.